• Join FlightAware (Why Join?)
  • Login
  • US Flag 
12:24AM EDT


 

Airport Tracker/Info


-or-


 

Live Flight TrackerFlight Track Log ✈ UAL3756 ✈ 21-Jun-2013 ✈ KIAD - KSAT

Flight Track Log - Related Links

Times and Time Zones

All times are in EDT time to prevent confusion due to time zone crossing. See the UAL3756 flight status page for this flight to view local times or setup timezone preferences in your user account.

Time Position Orientation Groundspeed Altitude Reporting Facility
EDT Latitude Longitude Course Direction KTS MPH feet Rate Location/Type
08:00PM 38.9167 -77.5667 265° West 218 251 2,400  Level Potomac TRACON
08:01PM 38.9000 -77.6500 256° West 266 306 4,400 2,400 Climbing Potomac TRACON
08:03PM 38.7996 -77.9871 287° West  Level FlightAware Approximate
08:03PM 38.8686 -77.7700 251° West 277 319 8,200  Level Washington Center
08:04PM 38.8346 -78.1384 288° West  Level FlightAware Approximate
08:04PM 38.8669 -77.8578 269° West 277 319 10,200  Level Washington Center
08:05PM 38.8500 -78.2933 270° West  Level FlightAware Approximate
08:05PM 38.8628 -77.9750 267° West 290 334 11,200  Level Washington Center
08:06PM 38.8476 -78.4511 265° West  Level FlightAware Approximate
08:06PM 38.8581 -78.0975 267° West 328 377 13,100  Level Washington Center
08:07PM 38.8533 -78.2253 267° West 352 405 14,900 1,680 Climbing Washington Center
08:08PM 38.8525 -78.3533 270° West 363 418 16,500 1,440 Climbing Washington Center
08:09PM 38.8514 -78.4864 269° West 368 423 17,800 1,380 Climbing Washington Center
08:10PM 38.8503 -78.6225 269° West 373 429 19,300 1,380 Climbing Washington Center
08:11PM 38.8489 -78.7583 269° West 383 441 20,600 1,200 Climbing Washington Center
08:12PM 38.8469 -78.9022 269° West 394 453 21,800 1,260 Climbing Washington Center
08:13PM 38.8450 -79.0461 269° West 400 460 23,200 1,140 Climbing Washington Center
08:14PM 38.8406 -79.1950 268° West 411 473 24,100 1,020 Climbing Washington Center
08:15PM 38.8175 -79.3406 259° West 417 480 25,300 1,080 Climbing Washington Center
08:16PM 38.7897 -79.4936 257° West 427 491 26,300 900 Climbing Washington Center
08:17PM 38.7589 -79.6650 257° West 444 511 27,200 900 Climbing Washington Center
08:18PM 38.7308 -79.8178 257° West 450 518 28,100 840 Climbing Washington Center
08:19PM 38.6944 -79.9953 255° West 454 522 29,100 780 Climbing Indianapolis Center
08:20PM 38.6639 -80.1553 256° West 459 528 29,900 780 Climbing Indianapolis Center
08:21PM 38.6356 -80.3136 257° West 458 527 30,800 720 Climbing Indianapolis Center
08:22PM 38.6044 -80.4747 256° West 465 535 31,400 660 Climbing Indianapolis Center
08:23PM 38.5744 -80.6372 257° West 468 539 32,200 840 Climbing Indianapolis Center
08:24PM 38.5356 -80.8319 256° West 469 540 33,200 720 Climbing Indianapolis Center
08:25PM 38.5033 -80.9939 256° West 468 539 33,800 660 Climbing Indianapolis Center
08:26PM 38.4714 -81.1578 256° West 471 542 34,600 600 Climbing Indianapolis Center
08:27PM 38.4378 -81.3225 255° West 474 545 35,100 480 Climbing Indianapolis Center
08:28PM 38.4058 -81.4903 256° West 479 551 35,600 420 Climbing Indianapolis Center
08:29PM 38.3714 -81.6586 255° West 484 557 36,000 180 Climbing Indianapolis Center
08:30PM 38.3342 -81.8247 254° West 485 558 36,000  Level Indianapolis Center
08:31PM 38.2872 -81.9897 250° West 493 567 36,000  Level Indianapolis Center
08:32PM 38.2406 -82.1561 250° West 498 573 36,000  Level Indianapolis Center
08:33PM 38.1931 -82.3250 250° West 504 580 36,000  Level Indianapolis Center
08:34PM 38.1350 -82.5292 250° West 506 582 36,000  Level Indianapolis Center
08:35PM 38.0869 -82.6961 250° West 508 585 36,000  Level Indianapolis Center
08:36PM 38.0386 -82.8656 250° West 511 588 36,000  Level Indianapolis Center
08:37PM 37.9892 -83.0347 250° West 513 590 36,000  Level Indianapolis Center
08:38PM 37.9389 -83.2031 249° West 515 593 36,000  Level Indianapolis Center
08:39PM 37.8864 -83.3694 248° West 512 589 36,000  Level Indianapolis Center
08:40PM 37.7972 -83.5483 238° Southwest 514 592 36,000  Level Indianapolis Center
08:41PM 37.7211 -83.6983 237° Southwest 513 590 36,000  Level Indianapolis Center
08:42PM 37.6442 -83.8497 237° Southwest 514 592 36,000  Level Indianapolis Center
08:44PM 37.5675 -84.0003 237° Southwest 513 590 36,000  Level Indianapolis Center
08:45PM 37.4894 -84.1519 237° Southwest 517 595 36,000  Level Indianapolis Center
08:46PM 37.4011 -84.3264 238° Southwest 510 587 36,000  Level Indianapolis Center
08:47PM 37.3222 -84.4778 237° Southwest 516 594 36,000  Level Indianapolis Center
08:48PM 37.2442 -84.6289 237° Southwest 518 596 36,000  Level Indianapolis Center
08:49PM 37.1656 -84.7786 237° Southwest 516 594 36,000  Level Indianapolis Center
08:50PM 37.0869 -84.9269 236° Southwest 514 592 36,000  Level Indianapolis Center
08:51PM 37.0039 -85.0867 237° Southwest 514 592 36,000  Level Indianapolis Center
08:52PM 36.9250 -85.2361 237° Southwest 516 594 36,000  Level Indianapolis Center
08:53PM 36.8469 -85.3847 237° Southwest 514 592 36,000  Level Indianapolis Center
08:54PM 36.7606 -85.5447 236° Southwest 513 590 36,000  Level Indianapolis Center
08:55PM 36.6733 -85.7075 236° Southwest 512 589 36,000  Level Indianapolis Center
08:56PM 36.6000 -85.8431 236° Southwest 515 593 36,000  Level Indianapolis Center
08:57PM 36.5194 -85.9914 236° Southwest 514 592 36,000  Level Indianapolis Center
08:58PM 36.4272 -86.1608 236° Southwest 523 602 36,000  Level Memphis Center
08:59PM 36.3467 -86.3092 236° Southwest 523 602 36,000  Level Memphis Center
09:00PM 36.2600 -86.4653 235° Southwest 523 602 36,000  Level Memphis Center
09:01PM 36.1789 -86.6056 234° Southwest 518 596 36,000  Level Memphis Center
09:02PM 36.0978 -86.7506 235° Southwest 518 596 36,000  Level Memphis Center
09:03PM 36.0206 -86.8925 236° Southwest 518 596 36,000  Level Memphis Center
09:04PM 35.9489 -87.0161 234° Southwest 513 590 36,000  Level Memphis Center
09:05PM 35.8519 -87.1403 226° Southwest 506 582 36,000  Level Memphis Center
09:06PM 35.7569 -87.2617 226° Southwest 494 568 36,000  Level Memphis Center
09:07PM 35.6642 -87.3828 227° Southwest 488 562 36,000  Level Memphis Center
09:08PM 35.5775 -87.5108 230° Southwest 488 562 36,000  Level Memphis Center
09:09PM 35.5014 -87.6486 236° Southwest 493 567 36,000  Level Memphis Center
09:10PM 35.4169 -87.7967 235° Southwest 493 567 36,000  Level Memphis Center
09:11PM 35.3547 -87.9233 239° Southwest 493 567 36,000  Level Memphis Center
09:12PM 35.2781 -88.0578 235° Southwest 493 567 36,000  Level Memphis Center
09:13PM 35.2033 -88.1969 237° Southwest 493 567 36,000  Level Memphis Center
09:14PM 35.1264 -88.3286 234° Southwest 493 567 36,000  Level Memphis Center
09:15PM 35.0492 -88.4647 235° Southwest 493 567 36,000  Level Memphis Center
09:16PM 34.9739 -88.5908 234° Southwest 480 552 36,000  Level Memphis Center
09:17PM 34.8983 -88.7214 235° Southwest 486 559 36,000  Level Memphis Center
09:18PM 34.8208 -88.8519 234° Southwest 486 559 36,000  Level Memphis Center
09:19PM 34.7453 -88.9847 235° Southwest 486 559 36,000  Level Memphis Center
09:20PM 34.6672 -89.1172 234° Southwest 481 554 36,000  Level Memphis Center
09:21PM 34.5831 -89.2597 234° Southwest 481 554 36,000  Level Memphis Center
09:22PM 34.5069 -89.3894 235° Southwest 481 554 36,000  Level Memphis Center
09:23PM 34.4308 -89.5211 235° Southwest 481 554 36,000  Level Memphis Center
09:24PM 34.3564 -89.6478 235° Southwest 481 554 36,000  Level Memphis Center
09:25PM 34.2797 -89.7789 235° Southwest 481 554 36,000  Level Memphis Center
09:26PM 34.2053 -89.9075 235° Southwest 476 548 36,000  Level Memphis Center
09:27PM 34.1389 -90.0183 234° Southwest 471 542 36,000  Level Memphis Center
09:28PM 34.0639 -90.1467 235° Southwest 471 542 36,000  Level Memphis Center
09:29PM 33.9889 -90.2719 234° Southwest 471 542 36,000  Level Memphis Center
09:30PM 33.9119 -90.3997 234° Southwest 471 542 36,000  Level Memphis Center
09:31PM 33.8386 -90.5247 235° Southwest 471 542 36,000  Level Memphis Center
09:32PM 33.7633 -90.6494 234° Southwest 471 542 36,000  Level Memphis Center
09:33PM 33.6794 -90.7892 234° Southwest 471 542 36,000  Level Memphis Center
09:34PM 33.6039 -90.9108 233° Southwest 471 542 36,000  Level Memphis Center
09:35PM 33.5281 -91.0350 234° Southwest 471 542 36,000  Level Memphis Center
09:36PM 33.4522 -91.1614 234° Southwest 471 542 36,000  Level Memphis Center
09:37PM 33.3761 -91.2850 234° Southwest 471 542 36,000  Level Memphis Center
09:38PM 33.3000 -91.4061 233° Southwest 471 542 36,000  Level Memphis Center
09:40PM 33.1717 -91.6214 235° Southwest 451 519 36,000  Level Fort Worth Center
09:41PM 33.0975 -91.7328 232° Southwest 463 533 36,000  Level Fort Worth Center
09:42PM 33.0178 -91.8642 234° Southwest 457 526 36,000  Level Fort Worth Center
09:43PM 32.9397 -91.9903 234° Southwest 457 526 36,000  Level Fort Worth Center
09:44PM 32.8594 -92.1114 232° Southwest 457 526 36,000  Level Fort Worth Center
09:45PM 32.8050 -92.2061 236° Southwest 457 526 36,000  Level Fort Worth Center
09:46PM 32.7125 -92.3422 231° Southwest 457 526 36,000  Level Fort Worth Center
09:47PM 32.6358 -92.4625 233° Southwest 463 533 36,000  Level Fort Worth Center
09:48PM 32.5611 -92.5825 234° Southwest 463 533 36,000  Level Fort Worth Center
09:49PM 32.4822 -92.7050 233° Southwest 463 533 36,000  Level Fort Worth Center
09:50PM 32.4075 -92.8294 235° Southwest 463 533 36,000  Level Fort Worth Center
09:51PM 32.3286 -92.9539 233° Southwest 476 548 36,000  Level Fort Worth Center
09:52PM 32.2514 -93.0756 233° Southwest 471 542 36,000  Level Fort Worth Center
09:53PM 32.1736 -93.1822 229° Southwest 451 519 36,000  Level Fort Worth Center
09:54PM 32.0964 -93.3108 235° Southwest 465 535 36,000  Level Fort Worth Center
09:55PM 32.0169 -93.4319 232° Southwest 471 542 36,000  Level Fort Worth Center
09:56PM 31.9392 -93.5506 232° Southwest 465 535 36,000  Level Fort Worth Center
09:57PM 31.8339 -93.7081 232° Southwest 459 528 36,000  Level Houston Center
09:58PM 31.7592 -93.8211 232° Southwest 460 529 36,000  Level Houston Center
09:59PM 31.6792 -93.9411 232° Southwest 463 533 36,000  Level Houston Center
10:00PM 31.6008 -94.0614 233° Southwest 465 535 36,000  Level Houston Center
10:01PM 31.5044 -94.2047 232° Southwest 463 533 36,000  Level Houston Center
10:02PM 31.4253 -94.3247 232° Southwest 465 535 36,000  Level Houston Center
10:03PM 31.3453 -94.4431 232° Southwest 463 533 36,000  Level Houston Center
10:04PM 31.2653 -94.5606 231° Southwest 459 528 36,000  Level Houston Center
10:05PM 31.1925 -94.6719 233° Southwest 474 545 36,000  Level Houston Center
10:06PM 31.0850 -94.7961 225° Southwest 477 549 36,000  Level Houston Center
10:07PM 30.9922 -94.8989 224° Southwest 464 534 36,000  Level Houston Center
10:08PM 30.8989 -95.0000 223° Southwest 457 526 36,000  Level Houston Center
10:09PM 30.8053 -95.1006 223° Southwest 458 527 36,000  Level Houston Center
10:10PM 30.7108 -95.2017 223° Southwest 459 528 36,000  Level Houston Center
10:11PM 30.6172 -95.3006 222° Southwest 457 526 36,000  Level Houston Center
10:12PM 30.5242 -95.4011 223° Southwest 456 525 36,000  Level Houston Center
10:13PM 30.4356 -95.4936 222° Southwest 455 524 36,000  Level Houston Center
10:14PM 30.3414 -95.5939 223° Southwest 459 528 36,000  Level Houston Center
10:15PM 30.2492 -95.6914 222° Southwest 455 524 36,000  Level Houston Center
10:16PM 30.1367 -95.8094 222° Southwest 457 526 36,000  Level Houston Center
10:18PM 30.0417 -95.9064 221° Southwest 457 526 36,000  Level Houston Center
10:19PM 29.9508 -96.0086 224° Southwest 461 531 36,000  Level Houston Center
10:20PM 29.9003 -96.1397 246° West 447 514 36,000  Level Houston Center
10:21PM 29.8975 -96.2819 269° West 443 510 36,000  Level Houston Center
10:22PM 29.8983 -96.4239 270° West 444 511 36,000 -60 Level Houston Center
10:23PM 29.8992 -96.5656 270° West 446 513 35,900 -1,260 Descending Houston Center
10:24PM 29.8992 -96.7069 270° West 447 514 33,500 -2,460 Descending Houston Center
10:25PM 29.8992 -96.8506 270° West 452 520 30,900 -2,520 Descending Houston Center
10:26PM 29.8989 -96.9958 270° West 455 524 28,400 -2,820 Descending Houston Center
10:27PM 29.8992 -97.1703 270° West 458 527 25,200 -2,880 Descending Houston Center
10:28PM 29.8981 -97.3103 270° West 448 516 22,600 -2,580 Descending Houston Center
10:29PM 29.8992 -97.4483 271° West 436 502 20,000 -2,520 Descending Houston Center
10:30PM 29.8989 -97.5892 270° West 427 491 17,500 -2,580 Descending Houston Center
10:30PM 29.8981 -97.6808 269° West 422 486 15,700 -2,400 Descending Houston Center
10:32PM 29.8961 -97.8356 269° West 386 444 13,100 -1,800 Descending Houston Center
10:33PM 29.8658 -97.9358 251° West 319 367 11,800 -1,440 Descending Houston Center
10:34PM 29.8303 -98.0244 245° Southwest 295 339 10,300 -1,500 Descending Houston Center
10:35PM 29.8047 -98.1097 251° West 278 320 8,800 -1,500 Descending Houston Center
10:36PM 29.7875 -98.1936 257° West 272 313 7,300 -1,560 Descending Houston Center
10:37PM 29.7681 -98.2778 255° West 268 308 5,700 -1,200 Descending Houston Center
10:38PM 29.7486 -98.3622 255° West 273 314 5,000 -360 Descending Houston Center
10:39PM 29.7231 -98.4517 252° West 271 312 5,000 -480 Level Houston Center
10:40PM 29.6878 -98.5233 240° Southwest 260 299 4,100 -840 Descending Houston Center
10:41PM 29.6444 -98.5767 227° Southwest 223 257 3,300 -840 Descending Houston Center
10:42PM 29.5961 -98.5561 160° South 181 208 2,500 -840 Descending Houston Center